Time;durP1;ratioP1;P1;durP2;ratioP2;P2;SDS_P1;SDS_P2;PMS_P1;PMS_P2;Temp;Humidity;BMP_temperature;BMP_pressure;BME280_temperature;BME280_humidity;BME280_pressure;Samples;Min_cycle;Max_cycle;Signal;HPM_P1;HPM_P2
2022/02/08 00:00:03;;;;;;;1.58;1.40;;;;;;;3.80;100.00;99575.09;4935655;29;20047;-74
2022/02/08 00:02:30;;;;;;;1.92;1.42;;;;;;;3.75;100.00;99580.00;4952423;29;20051;-72
2022/02/08 00:04:57;;;;;;;2.80;1.80;;;;;;;3.76;100.00;99583.41;4936788;29;20499;-75
2022/02/08 00:07:25;;;;;;;2.60;1.52;;;;;;;3.62;100.00;99578.50;4936863;29;20383;-76
2022/02/08 00:09:50;;;;;;;4.43;1.63;;;;;;;3.58;100.00;99579.16;4936697;29;20419;-74
2022/02/08 00:12:16;;;;;;;1.90;1.60;;;;;;;3.23;100.00;99542.50;4936836;29;20042;-72
2022/02/08 00:14:41;;;;;;;2.63;1.98;;;;;;;3.59;100.00;99583.47;4934860;29;20036;-74
2022/02/08 00:17:07;;;;;;;3.20;2.08;;;;;;;3.52;100.00;99587.34;4966456;28;20043;-71
2022/02/08 00:19:32;;;;;;;2.42;1.70;;;;;;;3.40;100.00;99595.28;4973077;28;20034;-74
2022/02/08 00:21:58;;;;;;;2.47;1.73;;;;;;;3.33;100.00;99584.69;4974601;28;20069;-75
2022/02/08 00:24:23;;;;;;;2.88;2.10;;;;;;;3.39;100.00;99597.75;4940234;28;20038;-75
2022/02/08 00:26:49;;;;;;;3.00;2.17;;;;;;;3.32;100.00;99583.78;4974802;28;20061;-74
2022/02/08 00:29:15;;;;;;;3.80;2.45;;;;;;;3.42;100.00;99592.78;4974360;28;20787;-75
2022/02/08 00:31:40;;;;;;;3.47;2.40;;;;;;;3.39;100.00;99578.22;4974476;28;20043;-74
2022/02/08 00:34:06;;;;;;;3.50;2.50;;;;;;;3.20;100.00;99566.19;4974465;28;20038;-73
2022/02/08 00:36:31;;;;;;;3.80;2.42;;;;;;;3.23;100.00;99590.97;4974616;28;20031;-74
2022/02/08 00:38:56;;;;;;;3.55;2.13;;;;;;;3.17;100.00;99575.34;4974281;28;20037;-73
2022/02/08 00:41:26;;;;;;;3.75;2.78;;;;;;;3.25;100.00;99612.31;4974445;28;20496;-75
2022/02/08 00:46:26;;;;;;;5.63;2.87;;;;;;;3.28;100.00;99597.19;4973961;28;20038;-74
2022/02/08 00:49:01;;;;;;;4.70;3.00;;;;;;;3.21;100.00;99602.75;4973934;28;20497;-75
2022/02/08 00:51:29;;;;;;;4.80;3.42;;;;;;;3.32;100.00;99609.28;4973995;28;20090;-76
2022/02/08 00:53:54;;;;;;;5.32;3.20;;;;;;;3.22;100.00;99605.38;4973901;28;20106;-75
2022/02/08 00:56:21;;;;;;;4.97;3.42;;;;;;;3.21;100.00;99608.72;4973907;28;20177;-75
2022/02/08 00:58:47;;;;;;;4.82;3.10;;;;;;;3.24;100.00;99625.91;4973875;28;20121;-73
2022/02/08 01:01:13;;;;;;;4.00;3.17;;;;;;;3.16;100.00;99622.91;4973728;28;20042;-74
2022/02/08 01:03:39;;;;;;;4.43;3.13;;;;;;;3.00;100.00;99587.22;4974097;28;20058;-75
2022/02/08 01:06:06;;;;;;;4.95;3.60;;;;;;;3.11;100.00;99598.00;4973627;28;20433;-75
2022/02/08 01:08:38;;;;;;;4.37;3.10;;;;;;;3.23;100.00;99626.69;4956849;28;20475;-73
2022/02/08 01:11:06;;;;;;;5.18;3.40;;;;;;;3.22;100.00;99622.38;4973810;28;20062;-73
2022/02/08 01:13:32;;;;;;;6.33;4.47;;;;;;;3.20;100.00;99619.75;4973411;28;20038;-75
2022/02/08 01:15:58;;;;;;;5.13;3.60;;;;;;;3.11;100.00;99620.94;4984420;28;20037;-71
2022/02/08 01:18:25;;;;;;;4.70;3.30;;;;;;;3.16;100.00;99634.81;4993069;28;20042;-74
2022/02/08 01:20:51;;;;;;;6.30;4.45;;;;;;;3.23;100.00;99625.00;4992747;28;20137;-71
2022/02/08 01:23:18;;;;;;;6.37;4.20;;;;;;;2.90;100.00;99580.75;4993099;28;20037;-75
2022/02/08 01:25:49;;;;;;;6.47;4.63;;;;;;;3.15;100.00;99622.84;4992469;28;20053;-74
2022/02/08 01:28:31;;;;;;;4.70;3.10;;;;;;;2.88;100.00;99577.25;4991981;28;20030;-76
2022/02/08 01:31:00;;;;;;;5.87;3.87;;;;;;;2.46;100.00;99523.19;4993024;28;20173;-77
2022/02/08 01:38:55;;;;;;;5.70;4.80;;;;;;;2.95;100.00;99592.06;4992918;28;20096;-75
2022/02/08 01:44:29;;;;;;;5.57;4.18;;;;;;;2.75;100.00;99563.84;4932305;29;20126;-75
2022/02/08 01:51:53;;;;;;;5.40;3.93;;;;;;;2.88;100.00;99590.00;4931857;29;20039;-74
2022/02/08 01:54:20;;;;;;;5.25;3.95;;;;;;;3.02;100.00;99618.78;4931958;29;20119;-77
2022/02/08 01:56:46;;;;;;;5.60;4.20;;;;;;;2.95;100.00;99620.09;4932212;29;20044;-76
2022/02/08 01:59:11;;;;;;;5.83;4.00;;;;;;;2.94;100.00;99618.38;4931919;29;20132;-78
2022/02/08 02:01:37;;;;;;;6.20;4.53;;;;;;;2.95;100.00;99625.19;4931811;29;20040;-74
2022/02/08 02:04:03;;;;;;;5.60;4.13;;;;;;;2.82;100.00;99598.19;4932168;29;20039;-79
2022/02/08 02:06:28;;;;;;;6.53;4.53;;;;;;;2.98;100.00;99639.78;4931946;29;20054;-78
2022/02/08 02:08:55;;;;;;;5.43;3.70;;;;;;;2.98;100.00;99655.09;4931787;29;20115;-76
2022/02/08 02:11:20;;;;;;;6.32;4.35;;;;;;;2.99;100.00;99646.66;4932026;29;20040;-78
2022/02/08 02:13:48;;;;;;;5.88;4.28;;;;;;;3.12;100.00;99663.50;4931736;29;20062;-78
2022/02/08 02:16:20;;;;;;;6.63;5.15;;;;;;;3.18;100.00;99664.69;4931453;29;20426;-78
2022/02/08 02:18:46;;;;;;;5.05;3.75;;;;;;;3.05;100.00;99647.88;4920133;29;20068;-77
2022/02/08 02:21:13;;;;;;;5.13;3.95;;;;;;;3.00;100.00;99654.38;4951125;28;20089;-79
2022/02/08 02:23:39;;;;;;;6.18;4.20;;;;;;;3.07;100.00;99665.81;4972519;28;20047;-78
2022/02/08 02:26:04;;;;;;;6.07;3.97;;;;;;;2.75;100.00;99627.56;4972486;28;20069;-78
2022/02/08 02:28:31;;;;;;;5.80;4.40;;;;;;;2.99;100.00;99656.84;4953553;28;20038;-75
2022/02/08 02:30:57;;;;;;;5.35;3.75;;;;;;;2.91;100.00;99638.59;4972729;28;20137;-76
2022/02/08 02:33:22;;;;;;;6.87;5.60;;;;;;;3.04;100.00;99641.00;4975346;28;20117;-82
2022/02/08 02:35:48;;;;;;;8.57;6.20;;;;;;;2.86;100.00;99612.84;4991730;28;20041;-79
2022/02/08 02:38:13;;;;;;;5.37;4.27;;;;;;;3.00;100.00;99631.41;4972754;28;20066;-79
2022/02/08 02:40:42;;;;;;;4.97;3.50;;;;;;;2.79;100.00;99620.09;4990711;28;20018;-80
2022/02/08 02:43:09;;;;;;;5.47;3.73;;;;;;;2.61;100.00;99571.56;4990366;28;20626;-82
2022/02/08 02:45:35;;;;;;;5.07;4.00;;;;;;;2.79;100.00;99620.09;4973072;28;20164;-80
2022/02/08 02:48:00;;;;;;;5.63;4.00;;;;;;;2.56;100.00;99568.75;4990679;28;20105;-82
2022/02/08 02:50:26;;;;;;;4.90;3.47;;;;;;;2.89;100.00;99625.78;4973396;28;20022;-84
2022/02/08 02:52:52;;;;;;;3.97;2.80;;;;;;;2.98;100.00;99624.50;4973464;28;20045;-82
2022/02/08 02:55:18;;;;;;;4.57;2.90;;;;;;;3.11;100.00;99623.50;4990522;28;20543;-79
2022/02/08 02:57:47;;;;;;;2.35;1.70;;;;;;;3.10;100.00;99602.19;4990391;28;20042;-82
2022/02/08 03:00:27;;;;;;;2.67;1.73;;;;;;;3.46;100.00;99652.53;4973559;28;20173;-80
2022/02/08 03:02:59;;;;;;;1.88;1.45;;;;;;;3.49;100.00;99648.47;4991414;28;20042;-80
2022/02/08 03:05:37;;;;;;;2.08;1.60;;;;;;;3.52;100.00;99651.16;4990643;28;20465;-81
2022/02/08 03:18:58;;;;;;;1.83;1.67;;;;;;;3.37;100.00;99664.00;4990313;28;20523;-84
2022/02/08 03:21:23;;;;;;;2.17;1.98;;;;;;;3.62;100.00;99705.25;4969303;28;20051;-83
2022/02/08 03:23:49;;;;;;;1.77;1.40;;;;;;;3.60;100.00;99700.06;4971912;28;20038;-80
2022/02/08 03:26:14;;;;;;;4.38;1.60;;;;;;;3.66;100.00;99709.69;4970000;28;20545;-80
2022/02/08 03:28:40;;;;;;;2.65;1.63;;;;;;;3.67;100.00;99707.22;4969742;28;20034;-83
2022/02/08 03:31:06;;;;;;;1.88;1.60;;;;;;;3.38;100.00;99653.00;4971185;28;20062;-82
2022/02/08 03:33:32;;;;;;;1.85;1.50;;;;;;;3.76;100.00;99722.13;4971127;28;20023;-83
2022/02/08 03:35:57;;;;;;;2.63;1.42;;;;;;;3.66;100.00;99715.69;4970434;28;20414;-84
2022/02/08 03:38:38;;;;;;;1.88;1.40;;;;;;;3.69;100.00;99726.06;4971410;28;20037;-81
2022/02/08 03:41:07;;;;;;;4.05;2.00;;;;;;;3.34;100.00;99686.81;4969998;28;20037;-84
2022/02/08 03:43:33;;;;;;;2.65;2.05;;;;;;;3.32;100.00;99703.69;4970130;28;20069;-80
2022/02/08 03:46:05;;;;;;;1.90;1.70;;;;;;;3.23;100.00;99706.63;4971009;28;20516;-81
2022/02/08 03:48:34;;;;;;;3.60;2.05;;;;;;;3.21;100.00;99705.66;4971330;28;20023;-82
2022/02/08 03:51:14;;;;;;;2.75;2.10;;;;;;;3.19;100.00;99681.75;4973118;28;20110;-80
2022/02/08 03:53:44;;;;;;;3.42;1.90;;;;;;;3.71;100.00;99736.34;4974402;28;20062;-85
2022/02/08 03:56:14;;;;;;;5.10;2.60;;;;;;;3.73;100.00;99733.06;4957385;28;20507;-81
2022/02/08 03:58:39;;;;;;;9.63;6.35;;;;;;;3.72;100.00;99733.00;4973297;28;20090;-80
2022/02/08 04:03:34;;;;;;;4.20;2.30;;;;;;;3.59;100.00;99708.53;4974164;28;20037;-81
2022/02/08 04:06:03;;;;;;;3.13;1.95;;;;;;;3.71;100.00;99742.34;4974694;28;20042;-76
2022/02/08 04:08:30;;;;;;;2.10;1.75;;;;;;;3.66;100.00;99742.88;4974177;28;20023;-78
2022/02/08 04:10:59;;;;;;;3.00;2.00;;;;;;;3.81;100.00;99776.88;4974761;28;20035;-79
2022/02/08 04:13:36;;;;;;;2.17;1.98;;;;;;;3.59;100.00;99745.91;4974657;28;20097;-78
2022/02/08 04:51:00;;;;;;;4.28;1.73;;;;;;;2.70;100.00;99858.34;4933485;29;20043;-78
2022/02/08 04:53:34;;;;;;;3.63;1.90;;;;;;;2.97;100.00;99909.19;4933530;29;20530;-76
2022/02/08 04:56:14;;;;;;;2.42;2.03;;;;;;;3.01;100.00;99915.38;4933498;29;20028;-78
2022/02/08 04:58:44;;;;;;;4.55;1.60;;;;;;;2.99;100.00;99912.72;4933200;29;20502;-80
2022/02/08 05:01:18;;;;;;;2.55;1.40;;;;;;;2.94;100.00;99916.69;4933227;29;20548;-80
2022/02/08 05:41:52;;;;;;;4.40;2.10;;;;;;;2.28;100.00;100046.09;5004946;28;20044;-81
2022/02/08 05:46:53;;;;;;;3.40;2.30;;;;;;;2.38;100.00;100053.50;5012406;28;20498;-76
2022/02/08 05:54:39;;;;;;;2.57;2.00;;;;;;;2.35;100.00;100071.13;4982929;28;20480;-78
2022/02/08 05:57:05;;;;;;;2.13;1.40;;;;;;;2.30;100.00;100064.88;4973287;28;20512;-74
2022/02/08 05:59:30;;;;;;;3.63;1.80;;;;;;;2.18;100.00;100049.69;4973000;28;20155;-74
2022/02/08 06:01:56;;;;;;;2.60;1.77;;;;;;;2.37;100.00;100089.94;5001198;28;20041;-75
2022/02/08 06:04:21;;;;;;;3.17;1.80;;;;;;;2.35;100.00;100093.19;5011880;28;20037;-74
2022/02/08 06:06:47;;;;;;;3.67;1.80;;;;;;;1.92;100.00;100007.31;5012127;28;20033;-75
2022/02/08 06:09:12;;;;;;;3.20;2.03;;;;;;;2.15;100.00;100062.22;4989550;28;20497;-74
2022/02/08 06:11:39;;;;;;;7.87;2.90;;;;;;;2.18;100.00;100099.75;4985182;28;20030;-74
2022/02/08 06:14:05;;;;;;;21.73;5.00;;;;;;;2.18;100.00;100103.19;4991495;28;20034;-74
2022/02/08 06:16:32;;;;;;;44.23;7.77;;;;;;;2.17;100.00;100109.06;4980046;28;20035;-75
2022/02/08 06:18:58;;;;;;;5.50;2.93;;;;;;;2.10;100.00;100107.75;4973895;28;20031;-72
2022/02/08 06:21:24;;;;;;;2.33;1.70;;;;;;;2.00;100.00;100120.69;4978848;28;20057;-74
2022/02/08 06:23:49;;;;;;;2.10;1.47;;;;;;;1.83;100.00;100104.28;4996194;28;20057;-74
2022/02/08 06:26:16;;;;;;;6.67;1.70;;;;;;;1.97;100.00;100117.06;5000972;28;20022;-75
2022/02/08 06:28:42;;;;;;;3.07;1.77;;;;;;;1.81;100.00;100103.31;4995945;28;20121;-73
2022/02/08 06:31:09;;;;;;;3.60;1.60;;;;;;;1.52;100.00;100073.41;4991829;28;20033;-73
2022/02/08 06:33:35;;;;;;;3.83;1.80;;;;;;;1.60;100.00;100087.53;4992259;28;20040;-73
2022/02/08 06:36:00;;;;;;;3.83;1.60;;;;;;;1.92;100.00;100125.28;4997430;28;20033;-70
2022/02/08 06:38:26;;;;;;;1.90;1.70;;;;;;;1.92;100.00;100126.97;4988864;28;20030;-73
2022/02/08 06:40:54;;;;;;;2.97;1.50;;;;;;;1.89;100.00;100124.19;4999031;28;20513;-73
2022/02/08 06:43:20;;;;;;;2.10;1.30;;;;;;;1.87;100.00;100128.28;4993403;28;20574;-73
2022/02/08 06:45:46;;;;;;;3.00;1.77;;;;;;;1.71;100.00;100101.84;5000731;28;20030;-73
2022/02/08 06:48:12;;;;;;;1.70;1.50;;;;;;;1.97;100.00;100148.50;4993367;28;20026;-73
2022/02/08 06:50:38;;;;;;;1.53;1.37;;;;;;;2.01;100.00;100154.69;4999585;28;20038;-73
2022/02/08 06:53:04;;;;;;;4.13;1.57;;;;;;;2.04;100.00;100162.50;5000674;28;20029;-73
2022/02/08 06:55:29;;;;;;;2.20;1.50;;;;;;;2.07;100.00;100162.72;5001122;28;20473;-73
2022/02/08 06:58:07;;;;;;;4.50;3.10;;;;;;;1.99;100.00;100143.50;4999716;28;20027;-73
2022/02/08 07:00:38;;;;;;;1.70;1.50;;;;;;;2.10;100.00;100160.38;4999015;28;20022;-74
2022/02/08 07:03:06;;;;;;;4.63;3.10;;;;;;;2.13;100.00;100152.03;4998480;28;20038;-73
2022/02/08 07:05:32;;;;;;;10.77;8.60;;;;;;;2.01;100.00;100142.81;4999732;28;20464;-70
2022/02/08 07:07:57;;;;;;;4.00;2.77;;;;;;;2.01;100.00;100160.66;4991243;28;20113;-73
2022/02/08 07:10:24;;;;;;;9.80;7.53;;;;;;;2.09;100.00;100167.13;5000174;28;20038;-71
2022/02/08 07:12:51;;;;;;;7.60;5.13;;;;;;;2.15;100.00;100160.69;5000150;28;20056;-74
2022/02/08 07:15:16;;;;;;;7.40;4.90;;;;;;;2.23;100.00;100165.50;4994276;28;20022;-71
2022/02/08 07:17:42;;;;;;;8.27;4.77;;;;;;;1.82;100.00;100105.09;4990451;28;20093;-70
2022/02/08 07:20:11;;;;;;;7.00;3.70;;;;;;;2.20;100.00;100166.94;5000520;28;20109;-70
2022/02/08 07:22:36;;;;;;;5.33;3.10;;;;;;;2.10;100.00;100153.59;4999350;28;20046;-74
2022/02/08 07:25:03;;;;;;;4.70;2.87;;;;;;;2.08;100.00;100170.47;5003544;28;20485;-70
2022/02/08 07:27:29;;;;;;;7.63;4.17;;;;;;;2.12;100.00;100168.09;4994588;28;20026;-74
2022/02/08 07:29:55;;;;;;;9.67;6.20;;;;;;;2.13;100.00;100175.88;4975255;28;20045;-73
2022/02/08 07:32:29;;;;;;;10.27;6.40;;;;;;;1.42;100.00;100042.28;5009945;28;20042;-72
2022/02/08 07:35:11;;;;;;;6.53;3.87;;;;;;;2.04;100.00;100162.50;4978385;28;20038;-73
2022/02/08 07:42:56;;;;;;;6.87;3.80;;;;;;;2.17;100.00;100159.09;4943469;29;20422;-74
2022/02/08 07:45:22;;;;;;;9.50;5.17;;;;;;;2.38;100.00;100164.69;4942595;29;20043;-76
2022/02/08 07:47:48;;;;;;;7.77;4.17;;;;;;;2.45;100.00;100168.53;4934487;29;20106;-76
2022/02/08 07:50:14;;;;;;;6.50;3.40;;;;;;;2.37;100.00;100155.31;4934167;29;20032;-76
2022/02/08 07:52:40;;;;;;;10.47;7.47;;;;;;;2.26;100.00;100155.47;4943387;29;20429;-76
2022/02/08 07:55:06;;;;;;;11.77;9.03;;;;;;;2.41;100.00;100177.66;4942800;29;20508;-76
2022/02/08 07:57:32;;;;;;;8.47;5.13;;;;;;;2.42;100.00;100182.84;4933465;29;20040;-76
2022/02/08 07:59:57;;;;;;;7.80;2.97;;;;;;;2.26;100.00;100147.84;4943103;29;20035;-75
2022/02/08 08:02:23;;;;;;;5.97;3.23;;;;;;;2.45;100.00;100189.81;4943100;29;20054;-76
2022/02/08 08:04:48;;;;;;;5.83;2.93;;;;;;;2.56;100.00;100198.16;4933949;29;20048;-76
2022/02/08 08:07:14;;;;;;;2.73;1.83;;;;;;;2.63;100.00;100190.13;4934032;29;20175;-76
2022/02/08 08:09:41;;;;;;;3.13;1.87;;;;;;;2.81;100.00;100228.63;4933907;29;20415;-75
2022/02/08 08:12:10;;;;;;;4.27;2.23;;;;;;;2.74;100.00;100240.13;4933904;29;20545;-76
2022/02/08 08:14:36;;;;;;;4.40;2.47;;;;;;;2.79;100.00;100231.88;4934045;29;20060;-76
2022/02/08 08:19:39;;;;;;;6.20;3.37;;;;;;;2.92;100.00;100244.63;4993979;28;20037;-76
2022/02/08 08:22:06;;;;;;;5.72;2.80;;;;;;;2.99;100.00;100254.44;4994173;28;20054;-76
2022/02/08 08:24:32;;;;;;;7.60;4.00;;;;;;;2.85;100.00;100230.59;4993973;28;20106;-78
2022/02/08 08:26:57;;;;;;;8.75;6.15;;;;;;;3.04;100.00;100257.25;4975522;28;20895;-75
2022/02/08 08:29:23;;;;;;;11.50;5.60;;;;;;;2.99;100.00;100249.34;4995400;28;20042;-76
2022/02/08 08:31:48;;;;;;;7.72;4.03;;;;;;;3.02;100.00;100264.81;4997098;28;20103;-78
2022/02/08 08:34:14;;;;;;;18.92;14.43;;;;;;;3.13;100.00;100277.38;4993803;28;20026;-77
2022/02/08 08:36:40;;;;;;;6.50;4.03;;;;;;;3.05;100.00;100275.25;4992952;28;20030;-77
2022/02/08 08:39:07;;;;;;;8.05;4.47;;;;;;;3.03;100.00;100264.03;4993896;28;20037;-77
2022/02/08 08:41:49;;;;;;;5.07;2.90;;;;;;;3.16;100.00;100295.44;4975898;28;20026;-77
2022/02/08 08:50:01;;;;;;;3.97;2.17;;;;;;;3.33;100.00;100311.81;4914315;29;20039;-76
2022/02/08 08:52:44;;;;;;;5.20;2.78;;;;;;;3.31;100.00;100318.50;4914227;29;20071;-76
2022/02/08 08:55:11;;;;;;;6.28;2.80;;;;;;;3.40;100.00;100313.94;4914266;29;20107;-76
2022/02/08 08:57:37;;;;;;;6.03;3.20;;;;;;;3.46;100.00;100327.09;4914122;29;20096;-79
2022/02/08 09:00:08;;;;;;;5.70;2.90;;;;;;;3.38;100.00;100325.75;4914139;29;20036;-79
2022/02/08 09:02:34;;;;;;;7.22;3.10;;;;;;;3.26;100.00;100327.53;4914034;29;20450;-79
2022/02/08 09:05:01;;;;;;;4.05;2.53;;;;;;;3.30;100.00;100337.13;4914088;29;20108;-79
2022/02/08 09:07:26;;;;;;;5.85;2.65;;;;;;;3.03;100.00;100283.56;4914023;29;20407;-79
2022/02/08 09:09:55;;;;;;;19.58;12.02;;;;;;;3.33;100.00;100343.31;4914035;29;20040;-79
2022/02/08 09:12:39;;;;;;;5.38;3.30;;;;;;;3.40;100.00;100335.28;4898707;29;20047;-79
2022/02/08 09:20:27;;;;;;;21.92;17.23;;;;;;;3.44;100.00;100328.69;4913917;29;20043;-77
2022/02/08 09:25:41;;;;;;;5.90;3.40;;;;;;;3.52;100.00;100342.81;4992522;28;20464;-77
2022/02/08 09:28:21;;;;;;;7.13;4.15;;;;;;;3.58;100.00;100332.09;4992774;28;20057;-78
2022/02/08 09:30:56;;;;;;;5.30;3.13;;;;;;;3.57;100.00;100320.13;4978020;28;20048;-78
2022/02/08 09:33:21;;;;;;;7.38;2.65;;;;;;;3.71;100.00;100331.19;4993126;28;20031;-78
2022/02/08 09:35:47;;;;;;;4.95;2.67;;;;;;;3.67;100.00;100335.22;4992508;28;20045;-78
2022/02/08 09:38:13;;;;;;;4.55;2.13;;;;;;;3.46;100.00;100304.13;4975230;28;20046;-78
2022/02/08 09:40:38;;;;;;;4.45;2.80;;;;;;;3.76;100.00;100326.38;4992878;28;20101;-80
2022/02/08 09:43:05;;;;;;;4.40;2.53;;;;;;;3.86;100.00;100331.25;4992230;28;20492;-81
2022/02/08 09:45:33;;;;;;;4.03;2.20;;;;;;;3.70;100.00;100280.91;4992720;28;20026;-80
2022/02/08 09:48:06;;;;;;;3.17;1.80;;;;;;;3.95;100.00;100321.63;4957564;28;20493;-79
2022/02/08 09:50:33;;;;;;;3.20;2.05;;;;;;;3.95;100.00;100313.97;4992409;28;20038;-79
2022/02/08 09:53:01;;;;;;;3.15;1.77;;;;;;;3.96;100.00;100314.84;4992324;28;20039;-78
2022/02/08 09:55:34;;;;;;;3.22;1.83;;;;;;;3.99;100.00;100318.47;4997979;28;20026;-79
2022/02/08 09:57:59;;;;;;;7.63;4.00;;;;;;;3.99;100.00;100318.47;4992426;28;20112;-80
2022/02/08 10:00:25;;;;;;;3.33;2.08;;;;;;;3.91;100.00;100300.91;4992339;28;20092;-77
2022/02/08 10:03:05;;;;;;;9.07;8.18;;;;;;;4.10;100.00;100321.66;4992277;28;20089;-76
2022/02/08 10:05:51;;;;;;;6.53;4.07;;;;;;;4.18;100.00;100317.00;4992251;28;20030;-77
2022/02/08 10:08:17;;;;;;;4.45;2.42;;;;;;;4.18;100.00;100310.22;4992118;28;20022;-77
2022/02/08 10:10:43;;;;;;;3.70;2.40;;;;;;;4.30;100.00;100315.19;4991996;28;20420;-78
2022/02/08 10:13:41;;;;;;;4.43;2.40;;;;;;;4.36;99.89;100305.34;4992187;28;20034;-78
2022/02/08 10:23:56;;;;;;;3.47;1.77;;;;;;;4.23;99.41;100287.50;5011605;28;20048;-77
2022/02/08 10:26:33;;;;;;;2.28;1.50;;;;;;;4.52;98.21;100299.47;5011775;28;20029;-77
2022/02/08 10:29:06;;;;;;;2.08;1.20;;;;;;;4.57;98.01;100309.06;5011591;28;20129;-77
2022/02/08 10:32:16;;;;;;;2.40;1.20;;;;;;;4.20;97.56;100231.13;5011347;28;20091;-77
2022/02/08 10:37:48;;;;;;;2.50;1.27;;;;;;;4.44;96.19;100294.69;5011458;28;20100;-78
2022/02/08 10:40:16;;;;;;;1.67;1.20;;;;;;;4.62;96.43;100302.53;5011097;28;20037;-77
2022/02/08 10:42:49;;;;;;;2.05;1.10;;;;;;;4.36;95.37;100236.34;4998607;28;20038;-78
2022/02/08 10:45:21;;;;;;;1.50;1.27;;;;;;;4.65;95.13;100300.16;4991665;28;20397;-78
2022/02/08 10:48:11;;;;;;;3.20;1.30;;;;;;;4.43;95.53;100259.69;4957771;28;20046;-77
2022/02/08 10:50:41;;;;;;;2.03;1.30;;;;;;;4.59;nan;100259.78;4990545;28;20121;-77
2022/02/08 10:53:09;;;;;;;1.88;1.20;;;;;;;4.63;94.48;100278.75;4991259;28;20026;-77
2022/02/08 11:03:12;;;;;;;2.15;1.20;;;;;;;4.95;92.40;100265.22;4991078;28;20528;-79
2022/02/08 11:05:49;;;;;;;1.70;1.60;;;;;;;4.97;91.19;100281.53;4991453;28;20023;-79
2022/02/08 11:19:29;;;;;;;2.00;1.42;;;;;;;5.22;91.28;100294.81;4952293;28;20429;-76
2022/02/08 11:22:10;;;;;;;2.40;1.40;;;;;;;5.11;89.54;100322.34;4968077;28;20047;-76
2022/02/08 11:24:46;;;;;;;2.10;1.27;;;;;;;4.97;89.33;100288.31;4969572;28;20050;-75
2022/02/08 11:27:17;;;;;;;2.55;1.45;;;;;;;5.17;89.24;100307.34;4969499;28;20093;-78
2022/02/08 11:30:17;;;;;;;2.05;1.30;;;;;;;5.14;91.10;100291.84;4969553;28;20485;-79
2022/02/08 11:50:07;;;;;;;2.70;1.63;;;;;;;5.00;86.13;100286.81;4874634;29;20044;-76
2022/02/08 11:55:48;;;;;;;3.97;1.40;;;;;;;5.01;85.21;100303.06;4864644;29;20068;-78
2022/02/08 12:00:46;;;;;;;2.45;1.70;;;;;;;5.27;87.13;100344.59;4876523;29;20043;-75
2022/02/08 12:06:13;;;;;;;3.38;1.60;;;;;;;5.16;85.05;100336.31;4878668;29;20048;-83
2022/02/08 12:08:41;;;;;;;2.13;1.38;;;;;;;5.22;85.75;100316.19;4881345;29;20044;-77
2022/02/08 12:11:51;;;;;;;4.15;1.73;;;;;;;5.24;84.13;100345.28;4912575;29;20036;-75
2022/02/08 13:00:26;;;;;;;10.98;3.78;;;;;;;4.83;84.55;100435.91;5002045;28;20126;-79
2022/02/08 14:01:32;;;;;;;4.90;2.70;;;;;;;4.87;82.25;100494.13;4969454;28;20041;-81
2022/02/08 14:21:22;;;;;;;4.47;3.17;;;;;;;4.85;83.31;100531.53;5011752;28;20041;-78
2022/02/08 14:24:01;;;;;;;4.20;2.63;;;;;;;4.69;83.44;100511.81;5011778;28;20025;-80
2022/02/08 14:32:13;;;;;;;8.93;5.22;;;;;;;4.83;83.33;100517.75;5011526;28;20113;-78
2022/02/08 15:09:58;;;;;;;6.00;2.67;;;;;;;4.67;86.49;100587.53;4891980;29;20075;-81
2022/02/08 15:12:27;;;;;;;5.53;3.90;;;;;;;4.69;86.96;100589.38;4913148;29;20039;-86
2022/02/08 15:15:00;;;;;;;5.50;3.63;;;;;;;4.67;88.57;100592.66;4918719;29;20040;-79
2022/02/08 15:17:26;;;;;;;5.82;3.30;;;;;;;4.51;89.40;100565.22;4914676;29;20040;-84
2022/02/08 15:19:53;;;;;;;5.13;3.05;;;;;;;4.37;90.07;100557.59;4963810;28;20415;-82
2022/02/08 15:22:19;;;;;;;5.97;3.55;;;;;;;4.56;90.56;100593.66;4991239;28;20429;-83
2022/02/08 15:24:46;;;;;;;4.75;2.65;;;;;;;4.49;91.20;100588.16;4991411;28;20027;-84
2022/02/08 15:27:13;;;;;;;6.32;2.97;;;;;;;4.38;90.70;100579.78;4973552;28;20038;-84
2022/02/08 15:29:39;;;;;;;4.85;2.58;;;;;;;4.09;91.72;100534.50;4991098;28;20022;-87
2022/02/08 15:32:12;;;;;;;5.68;3.13;;;;;;;4.45;92.31;100601.53;4933943;29;20494;-81
2022/02/08 15:34:38;;;;;;;4.75;3.08;;;;;;;4.35;92.38;100592.38;4950202;29;20062;-81
2022/02/08 15:37:04;;;;;;;4.55;2.83;;;;;;;4.48;91.92;100605.94;4950002;29;20051;-78
2022/02/08 15:39:29;;;;;;;5.05;2.80;;;;;;;4.37;92.51;100608.72;4950119;29;20079;-79
2022/02/08 15:41:54;;;;;;;7.60;3.40;;;;;;;4.34;92.63;100618.72;4949712;29;20039;-80
2022/02/08 15:44:23;;;;;;;5.68;3.40;;;;;;;4.33;93.00;100616.06;4933641;29;20049;-81
2022/02/08 15:46:51;;;;;;;6.90;3.40;;;;;;;4.17;93.71;100599.75;4951778;28;20134;-80
2022/02/08 15:49:17;;;;;;;4.78;2.92;;;;;;;4.18;93.88;100618.53;4957623;28;20107;-81
2022/02/08 15:51:48;;;;;;;6.03;3.67;;;;;;;4.13;94.31;100609.69;4953551;28;20035;-83
2022/02/08 15:54:23;;;;;;;4.20;2.83;;;;;;;4.04;94.55;100613.41;4953617;28;20474;-80
2022/02/08 16:07:41;;;;;;;10.95;5.90;;;;;;;3.86;96.26;100647.94;5007529;28;20459;-78
2022/02/08 16:10:18;;;;;;;6.13;3.50;;;;;;;3.91;96.25;100653.38;5014274;28;20026;-77
2022/02/08 16:15:38;;;;;;;6.13;3.38;;;;;;;4.05;94.20;100662.84;5002147;28;20096;-76
2022/02/08 16:28:46;;;;;;;6.22;3.70;;;;;;;3.86;95.07;100699.94;5001780;28;20030;-78
2022/02/08 17:00:30;;;;;;;6.03;3.75;;;;;;;3.59;95.40;100746.53;4993762;28;20481;-80
2022/02/08 17:03:00;;;;;;;5.10;3.65;;;;;;;3.61;95.25;100758.63;4993452;28;20026;-80
2022/02/08 17:05:27;;;;;;;6.43;3.55;;;;;;;3.66;95.06;100769.16;4993193;28;20027;-78
2022/02/08 17:07:52;;;;;;;5.45;2.97;;;;;;;3.56;95.00;100765.97;4993515;28;20455;-80
2022/02/08 17:10:40;;;;;;;5.72;3.08;;;;;;;3.64;95.18;100781.84;4993265;28;20037;-79
2022/02/08 17:16:12;;;;;;;4.28;2.65;;;;;;;3.64;94.35;100792.03;4993289;28;20049;-78
2022/02/08 17:48:10;;;;;;;11.85;9.73;;;;;;;3.30;92.72;100863.69;4992621;28;20040;-78
2022/02/08 17:50:36;;;;;;;6.78;4.60;;;;;;;3.30;92.48;100858.56;4991387;28;20026;-79
2022/02/08 17:53:03;;;;;;;4.82;3.30;;;;;;;3.04;92.78;100837.16;4992456;28;20031;-79
2022/02/08 17:55:29;;;;;;;7.53;4.07;;;;;;;3.25;92.84;100875.19;4992371;28;20109;-80
2022/02/08 17:57:55;;;;;;;6.32;4.00;;;;;;;3.19;93.15;100874.75;4992593;28;20038;-81
2022/02/08 18:00:21;;;;;;;7.07;3.63;;;;;;;3.03;92.88;100860.00;4991237;28;20065;-77
2022/02/08 18:02:47;;;;;;;5.45;2.80;;;;;;;3.02;92.95;100896.47;4992497;28;20030;-78
2022/02/08 18:05:15;;;;;;;5.22;2.88;;;;;;;2.73;92.74;100839.97;4992776;28;20520;-78
2022/02/08 18:07:43;;;;;;;7.93;3.30;;;;;;;3.05;92.20;100894.13;4991944;28;20056;-79
2022/02/08 18:10:10;;;;;;;4.50;3.15;;;;;;;2.75;91.93;100857.94;4991248;28;20026;-78
2022/02/08 18:12:37;;;;;;;6.85;3.35;;;;;;;2.73;92.21;100882.44;4991071;28;20034;-80
2022/02/08 18:15:09;;;;;;;5.78;3.88;;;;;;;2.79;92.64;100907.50;4992478;28;20077;-78
2022/02/08 18:17:39;;;;;;;6.32;3.90;;;;;;;2.74;91.80;100908.06;4991934;28;20034;-81
2022/02/08 18:20:11;;;;;;;7.45;3.63;;;;;;;2.55;91.51;100864.09;4992047;28;20076;-78
2022/02/08 18:54:51;;;;;;;5.55;3.25;;;;;;;2.39;90.00;100966.50;4986807;28;20090;-75
2022/02/08 19:09:14;;;;;;;5.87;2.33;;;;;;;2.35;87.52;100975.56;4972897;28;20037;-73
2022/02/08 19:19:40;;;;;;;5.83;3.23;;;;;;;2.30;86.58;100992.16;4971133;28;20030;-76
2022/02/08 19:22:06;;;;;;;4.33;3.00;;;;;;;2.26;85.45;100974.88;4982278;28;20076;-75
2022/02/08 19:24:32;;;;;;;6.93;2.87;;;;;;;2.33;84.61;100986.41;4991451;28;20039;-75
2022/02/08 19:27:00;;;;;;;6.30;2.90;;;;;;;2.25;84.85;100975.63;4990906;28;20405;-80
2022/02/08 19:29:27;;;;;;;6.10;2.93;;;;;;;2.29;85.27;100995.47;4991130;28;20022;-78
2022/02/08 19:31:53;;;;;;;5.50;2.83;;;;;;;2.18;84.41;100981.00;4991641;28;20137;-74
2022/02/08 19:34:19;;;;;;;6.53;3.40;;;;;;;2.23;84.94;101002.63;4990834;28;20032;-75
2022/02/08 19:36:46;;;;;;;5.30;2.60;;;;;;;2.13;85.43;100990.88;4990672;28;20479;-75
2022/02/08 19:39:13;;;;;;;5.37;2.60;;;;;;;2.10;85.59;100988.06;4991361;28;20026;-76
2022/02/08 19:41:40;;;;;;;4.90;3.07;;;;;;;2.17;84.81;101004.69;4990924;28;20022;-75
2022/02/08 19:44:08;;;;;;;8.60;2.70;;;;;;;2.08;84.96;101010.88;4993035;28;20497;-78